sensor_id;sensor_type;location;lat;lon;timestamp;pressure;altitude;pressure_sealevel;temperature;humidity
3082;BME280;1551;51.046;7.010;2023-09-19T00:00:56;100232.91;;;18.00;nan
3082;BME280;1551;51.046;7.010;2023-09-19T00:03:46;100237.16;;;18.01;nan
3082;BME280;1551;51.046;7.010;2023-09-19T00:06:36;100243.94;;;18.04;nan
3082;BME280;1551;51.046;7.010;2023-09-19T00:09:26;100241.50;;;18.01;nan
3082;BME280;1551;51.046;7.010;2023-09-19T00:12:16;100242.34;;;18.01;nan
3082;BME280;1551;51.046;7.010;2023-09-19T00:15:07;100248.28;;;18.03;nan
3082;BME280;1551;51.046;7.010;2023-09-19T00:17:56;100253.69;;;17.99;nan
3082;BME280;1551;51.046;7.010;2023-09-19T00:20:45;100247.13;;;17.92;nan
3082;BME280;1551;51.046;7.010;2023-09-19T00:23:38;100255.25;;;17.84;nan
3082;BME280;1551;51.046;7.010;2023-09-19T00:26:31;100253.56;;;17.83;nan
3082;BME280;1551;51.046;7.010;2023-09-19T00:29:21;100258.88;;;17.80;nan
3082;BME280;1551;51.046;7.010;2023-09-19T00:32:10;100263.03;;;17.84;nan
3082;BME280;1551;51.046;7.010;2023-09-19T00:34:59;100262.09;;;17.85;nan
3082;BME280;1551;51.046;7.010;2023-09-19T00:37:49;100256.06;;;17.84;nan
3082;BME280;1551;51.046;7.010;2023-09-19T00:40:44;100263.63;;;17.89;nan
3082;BME280;1551;51.046;7.010;2023-09-19T00:43:33;100269.03;;;17.84;nan
3082;BME280;1551;51.046;7.010;2023-09-19T00:46:23;100261.34;;;17.83;nan
3082;BME280;1551;51.046;7.010;2023-09-19T00:49:13;100262.94;;;17.85;nan
3082;BME280;1551;51.046;7.010;2023-09-19T00:52:03;100266.22;;;17.89;nan
3082;BME280;1551;51.046;7.010;2023-09-19T00:54:54;100271.97;;;17.96;nan
3082;BME280;1551;51.046;7.010;2023-09-19T00:57:43;100279.97;;;17.91;nan
3082;BME280;1551;51.046;7.010;2023-09-19T01:00:33;100274.19;;;17.84;nan
3082;BME280;1551;51.046;7.010;2023-09-19T01:03:23;100281.84;;;17.88;nan
3082;BME280;1551;51.046;7.010;2023-09-19T01:06:12;100282.59;;;17.90;nan
3082;BME280;1551;51.046;7.010;2023-09-19T01:09:02;100283.53;;;17.89;nan
3082;BME280;1551;51.046;7.010;2023-09-19T01:11:58;100284.06;;;17.95;nan
3082;BME280;1551;51.046;7.010;2023-09-19T01:14:54;100284.50;;;18.05;nan
3082;BME280;1551;51.046;7.010;2023-09-19T01:17:59;100289.13;;;17.98;nan
3082;BME280;1551;51.046;7.010;2023-09-19T01:21:10;100284.84;;;17.97;nan
3082;BME280;1551;51.046;7.010;2023-09-19T01:27:44;100286.22;;;18.04;nan
3082;BME280;1551;51.046;7.010;2023-09-19T01:30:43;100307.78;;;18.05;nan
3082;BME280;1551;51.046;7.010;2023-09-19T01:34:01;100300.59;;;17.93;nan
3082;BME280;1551;51.046;7.010;2023-09-19T01:36:52;100301.66;;;17.89;nan
3082;BME280;1551;51.046;7.010;2023-09-19T01:39:42;100300.94;;;17.85;nan
3082;BME280;1551;51.046;7.010;2023-09-19T01:42:42;100299.41;;;17.81;nan
3082;BME280;1551;51.046;7.010;2023-09-19T01:45:59;100313.13;;;17.83;nan
3082;BME280;1551;51.046;7.010;2023-09-19T01:52:15;100316.13;;;17.74;nan
3082;BME280;1551;51.046;7.010;2023-09-19T01:55:08;100322.97;;;17.75;nan
3082;BME280;1551;51.046;7.010;2023-09-19T01:58:07;100326.53;;;17.72;nan
3082;BME280;1551;51.046;7.010;2023-09-19T02:00:58;100314.44;;;17.73;nan
3082;BME280;1551;51.046;7.010;2023-09-19T02:03:49;100324.88;;;17.71;nan
3082;BME280;1551;51.046;7.010;2023-09-19T02:06:40;100321.44;;;17.71;nan
3082;BME280;1551;51.046;7.010;2023-09-19T02:09:30;100332.63;;;17.71;nan
3082;BME280;1551;51.046;7.010;2023-09-19T02:12:19;100335.44;;;17.67;nan
3082;BME280;1551;51.046;7.010;2023-09-19T02:15:08;100343.44;;;17.61;nan
3082;BME280;1551;51.046;7.010;2023-09-19T02:17:58;100332.41;;;17.57;nan
3082;BME280;1551;51.046;7.010;2023-09-19T02:20:48;100338.66;;;17.53;nan
3082;BME280;1551;51.046;7.010;2023-09-19T02:23:37;100347.38;;;17.49;nan
3082;BME280;1551;51.046;7.010;2023-09-19T02:26:27;100348.38;;;17.47;nan
3082;BME280;1551;51.046;7.010;2023-09-19T02:29:16;100335.50;;;17.45;nan
3082;BME280;1551;51.046;7.010;2023-09-19T02:32:05;100335.59;;;17.44;nan
3082;BME280;1551;51.046;7.010;2023-09-19T02:34:54;100348.56;;;17.42;nan
3082;BME280;1551;51.046;7.010;2023-09-19T02:37:43;100350.25;;;17.43;nan
3082;BME280;1551;51.046;7.010;2023-09-19T02:40:33;100357.19;;;17.43;nan
3082;BME280;1551;51.046;7.010;2023-09-19T02:43:24;100350.34;;;17.42;nan
3082;BME280;1551;51.046;7.010;2023-09-19T02:46:13;100348.56;;;17.42;nan
3082;BME280;1551;51.046;7.010;2023-09-19T02:49:03;100354.72;;;17.40;nan
3082;BME280;1551;51.046;7.010;2023-09-19T02:51:55;100354.59;;;17.43;nan
3082;BME280;1551;51.046;7.010;2023-09-19T02:54:44;100356.31;;;17.42;nan
3082;BME280;1551;51.046;7.010;2023-09-19T02:57:33;100352.06;;;17.41;nan
3082;BME280;1551;51.046;7.010;2023-09-19T03:00:23;100364.38;;;17.36;nan
3082;BME280;1551;51.046;7.010;2023-09-19T03:03:13;100363.84;;;17.28;nan
3082;BME280;1551;51.046;7.010;2023-09-19T03:06:07;100363.91;;;17.27;nan
3082;BME280;1551;51.046;7.010;2023-09-19T03:09:01;100377.91;;;17.23;nan
3082;BME280;1551;51.046;7.010;2023-09-19T03:11:55;100366.78;;;17.21;nan
3082;BME280;1551;51.046;7.010;2023-09-19T03:14:44;100377.03;;;17.22;nan
3082;BME280;1551;51.046;7.010;2023-09-19T03:17:33;100375.91;;;17.09;nan
3082;BME280;1551;51.046;7.010;2023-09-19T03:20:22;100383.50;;;17.12;nan
3082;BME280;1551;51.046;7.010;2023-09-19T03:23:12;100376.00;;;17.06;nan
3082;BME280;1551;51.046;7.010;2023-09-19T03:26:02;100388.75;;;17.10;nan
3082;BME280;1551;51.046;7.010;2023-09-19T03:28:54;100388.81;;;17.09;nan
3082;BME280;1551;51.046;7.010;2023-09-19T03:31:43;100393.19;;;17.07;nan
3082;BME280;1551;51.046;7.010;2023-09-19T03:34:33;100394.97;;;17.06;nan
3082;BME280;1551;51.046;7.010;2023-09-19T03:37:22;100390.69;;;17.05;nan
3082;BME280;1551;51.046;7.010;2023-09-19T03:40:12;100387.19;;;17.06;nan
3082;BME280;1551;51.046;7.010;2023-09-19T03:43:01;100260.78;;;16.17;nan
3082;BME280;1551;51.046;7.010;2023-09-19T03:45:51;100380.25;;;17.07;nan
3082;BME280;1551;51.046;7.010;2023-09-19T03:51:32;100374.63;;;16.97;nan
3082;BME280;1551;51.046;7.010;2023-09-19T03:54:23;100363.31;;;17.00;nan
3082;BME280;1551;51.046;7.010;2023-09-19T03:57:12;100372.84;;;16.99;nan
3082;BME280;1551;51.046;7.010;2023-09-19T04:03:01;100378.31;;;16.92;nan
3082;BME280;1551;51.046;7.010;2023-09-19T04:05:54;100365.13;;;16.98;nan
3082;BME280;1551;51.046;7.010;2023-09-19T04:08:44;100372.41;;;16.88;nan
3082;BME280;1551;51.046;7.010;2023-09-19T04:11:34;100375.28;;;16.82;nan
3082;BME280;1551;51.046;7.010;2023-09-19T04:14:23;100375.53;;;16.76;nan
3082;BME280;1551;51.046;7.010;2023-09-19T04:17:12;100374.03;;;16.71;nan
3082;BME280;1551;51.046;7.010;2023-09-19T04:20:01;100378.53;;;16.66;nan
3082;BME280;1551;51.046;7.010;2023-09-19T04:25:40;100375.25;;;16.62;nan
3082;BME280;1551;51.046;7.010;2023-09-19T04:28:29;100376.19;;;16.60;nan
3082;BME280;1551;51.046;7.010;2023-09-19T04:31:18;100379.75;;;16.57;nan
3082;BME280;1551;51.046;7.010;2023-09-19T04:34:08;100391.53;;;16.64;nan
3082;BME280;1551;51.046;7.010;2023-09-19T04:36:57;100384.78;;;16.60;nan
3082;BME280;1551;51.046;7.010;2023-09-19T04:39:47;100404.66;;;16.58;nan
3082;BME280;1551;51.046;7.010;2023-09-19T04:42:36;100386.72;;;16.55;nan
3082;BME280;1551;51.046;7.010;2023-09-19T04:45:27;100387.53;;;16.56;nan
3082;BME280;1551;51.046;7.010;2023-09-19T04:48:16;100393.63;;;16.55;nan
3082;BME280;1551;51.046;7.010;2023-09-19T04:51:05;100401.38;;;16.55;nan
3082;BME280;1551;51.046;7.010;2023-09-19T04:53:54;100408.38;;;16.51;nan
3082;BME280;1551;51.046;7.010;2023-09-19T04:56:43;100400.59;;;16.53;nan
3082;BME280;1551;51.046;7.010;2023-09-19T04:59:32;100416.13;;;16.51;nan
3082;BME280;1551;51.046;7.010;2023-09-19T05:02:21;100420.34;;;16.54;nan
3082;BME280;1551;51.046;7.010;2023-09-19T05:05:10;100412.56;;;16.55;nan
3082;BME280;1551;51.046;7.010;2023-09-19T05:08:00;100411.91;;;16.48;nan
3082;BME280;1551;51.046;7.010;2023-09-19T05:10:49;100417.13;;;16.47;nan
3082;BME280;1551;51.046;7.010;2023-09-19T05:13:38;100409.38;;;16.47;nan
3082;BME280;1551;51.046;7.010;2023-09-19T05:16:28;100399.81;;;16.49;nan
3082;BME280;1551;51.046;7.010;2023-09-19T05:19:18;100414.44;;;16.50;nan
3082;BME280;1551;51.046;7.010;2023-09-19T05:22:07;100417.06;;;16.48;nan
3082;BME280;1551;51.046;7.010;2023-09-19T05:24:56;100434.22;;;16.51;nan
3082;BME280;1551;51.046;7.010;2023-09-19T05:27:45;100440.28;;;16.50;nan
3082;BME280;1551;51.046;7.010;2023-09-19T05:30:35;100447.81;;;16.56;nan
3082;BME280;1551;51.046;7.010;2023-09-19T05:33:28;100447.03;;;16.54;nan
3082;BME280;1551;51.046;7.010;2023-09-19T05:36:17;100448.78;;;16.54;nan
3082;BME280;1551;51.046;7.010;2023-09-19T05:39:06;100463.44;;;16.53;nan
3082;BME280;1551;51.046;7.010;2023-09-19T05:41:57;100468.66;;;16.52;nan
3082;BME280;1551;51.046;7.010;2023-09-19T05:44:46;100460.66;;;16.58;nan
3082;BME280;1551;51.046;7.010;2023-09-19T05:47:35;100457.13;;;16.60;nan
3082;BME280;1551;51.046;7.010;2023-09-19T05:50:24;100471.56;;;16.66;nan
3082;BME280;1551;51.046;7.010;2023-09-19T05:53:13;100474.81;;;16.71;nan
3082;BME280;1551;51.046;7.010;2023-09-19T05:56:03;100472.91;;;16.76;nan
3082;BME280;1551;51.046;7.010;2023-09-19T05:58:52;100491.53;;;16.84;nan
3082;BME280;1551;51.046;7.010;2023-09-19T06:01:42;100480.78;;;16.94;nan
3082;BME280;1551;51.046;7.010;2023-09-19T06:04:31;100477.22;;;16.97;nan
3082;BME280;1551;51.046;7.010;2023-09-19T06:07:21;100490.00;;;17.00;nan
3082;BME280;1551;51.046;7.010;2023-09-19T06:10:10;100487.91;;;17.09;nan
3082;BME280;1551;51.046;7.010;2023-09-19T06:13:02;100510.28;;;17.10;nan
3082;BME280;1551;51.046;7.010;2023-09-19T06:15:55;100513.94;;;17.05;nan
3082;BME280;1551;51.046;7.010;2023-09-19T06:18:45;100499.66;;;16.96;nan
3082;BME280;1551;51.046;7.010;2023-09-19T06:21:34;100509.69;;;17.04;nan
3082;BME280;1551;51.046;7.010;2023-09-19T06:24:23;100532.00;;;17.06;nan
3082;BME280;1551;51.046;7.010;2023-09-19T06:27:12;100531.88;;;17.09;nan
3082;BME280;1551;51.046;7.010;2023-09-19T06:30:02;100527.47;;;17.11;nan
3082;BME280;1551;51.046;7.010;2023-09-19T06:32:59;100525.03;;;17.08;nan
3082;BME280;1551;51.046;7.010;2023-09-19T06:35:49;100514.81;;;17.05;nan
3082;BME280;1551;51.046;7.010;2023-09-19T06:41:27;100520.75;;;17.07;nan
3082;BME280;1551;51.046;7.010;2023-09-19T06:44:18;100518.94;;;17.09;nan
3082;BME280;1551;51.046;7.010;2023-09-19T06:47:07;100521.72;;;17.05;nan
3082;BME280;1551;51.046;7.010;2023-09-19T06:49:56;100514.63;;;17.10;nan
3082;BME280;1551;51.046;7.010;2023-09-19T06:55:37;100520.38;;;17.16;nan
3082;BME280;1551;51.046;7.010;2023-09-19T06:58:25;100525.03;;;17.30;nan
3082;BME280;1551;51.046;7.010;2023-09-19T07:01:15;100529.59;;;17.24;nan
3082;BME280;1551;51.046;7.010;2023-09-19T07:04:04;100525.38;;;17.21;nan
3082;BME280;1551;51.046;7.010;2023-09-19T07:06:54;100516.28;;;17.33;nan
3082;BME280;1551;51.046;7.010;2023-09-19T07:09:43;100522.78;;;17.43;nan
3082;BME280;1551;51.046;7.010;2023-09-19T07:12:32;100520.97;;;17.45;nan
3082;BME280;1551;51.046;7.010;2023-09-19T07:15:21;100531.25;;;17.46;nan
3082;BME280;1551;51.046;7.010;2023-09-19T07:18:13;100535.31;;;17.53;nan
3082;BME280;1551;51.046;7.010;2023-09-19T07:21:03;100533.63;;;17.52;nan
3082;BME280;1551;51.046;7.010;2023-09-19T07:23:53;100532.38;;;17.61;nan
3082;BME280;1551;51.046;7.010;2023-09-19T07:26:42;100524.00;;;17.56;nan
3082;BME280;1551;51.046;7.010;2023-09-19T07:32:20;100532.53;;;17.78;nan
3082;BME280;1551;51.046;7.010;2023-09-19T07:35:09;100538.56;;;17.78;nan
3082;BME280;1551;51.046;7.010;2023-09-19T07:40:50;100550.03;;;17.93;nan
3082;BME280;1551;51.046;7.010;2023-09-19T07:43:39;100543.69;;;18.00;nan
3082;BME280;1551;51.046;7.010;2023-09-19T07:46:29;100550.84;;;18.14;nan
3082;BME280;1551;51.046;7.010;2023-09-19T07:49:20;100550.09;;;18.12;nan
3082;BME280;1551;51.046;7.010;2023-09-19T07:52:09;100552.72;;;18.10;nan
3082;BME280;1551;51.046;7.010;2023-09-19T07:54:59;100546.44;;;18.16;nan
3082;BME280;1551;51.046;7.010;2023-09-19T07:57:49;100554.13;;;18.37;nan
3082;BME280;1551;51.046;7.010;2023-09-19T08:00:39;100549.75;;;18.77;nan
3082;BME280;1551;51.046;7.010;2023-09-19T08:03:28;100549.06;;;18.92;nan
3082;BME280;1551;51.046;7.010;2023-09-19T08:06:17;100554.25;;;19.10;nan
3082;BME280;1551;51.046;7.010;2023-09-19T08:09:07;100544.53;;;19.14;nan
3082;BME280;1551;51.046;7.010;2023-09-19T08:14:51;100562.03;;;19.46;nan
3082;BME280;1551;51.046;7.010;2023-09-19T08:17:40;100558.56;;;19.64;nan
3082;BME280;1551;51.046;7.010;2023-09-19T08:20:29;100568.38;;;19.58;nan
3082;BME280;1551;51.046;7.010;2023-09-19T08:23:18;100558.75;;;19.43;nan
3082;BME280;1551;51.046;7.010;2023-09-19T08:26:08;100563.09;;;19.42;nan
3082;BME280;1551;51.046;7.010;2023-09-19T08:28:57;100554.25;;;19.46;nan
3082;BME280;1551;51.046;7.010;2023-09-19T08:31:47;100553.75;;;19.74;nan
3082;BME280;1551;51.046;7.010;2023-09-19T08:34:39;100566.72;;;19.91;nan
3082;BME280;1551;51.046;7.010;2023-09-19T08:37:28;100558.25;;;19.87;nan
3082;BME280;1551;51.046;7.010;2023-09-19T08:40:18;100565.03;;;20.24;nan
3082;BME280;1551;51.046;7.010;2023-09-19T08:43:07;100562.88;;;20.32;nan
3082;BME280;1551;51.046;7.010;2023-09-19T08:46:23;100584.69;;;20.30;nan
3082;BME280;1551;51.046;7.010;2023-09-19T08:52:41;100557.22;;;20.07;nan
3082;BME280;1551;51.046;7.010;2023-09-19T08:55:31;100573.13;;;19.84;nan
3082;BME280;1551;51.046;7.010;2023-09-19T08:58:21;100568.53;;;19.89;nan
3082;BME280;1551;51.046;7.010;2023-09-19T09:01:14;100574.13;;;19.99;nan
3082;BME280;1551;51.046;7.010;2023-09-19T09:04:08;100557.06;;;20.10;nan
3082;BME280;1551;51.046;7.010;2023-09-19T09:06:57;100564.41;;;20.52;nan
3082;BME280;1551;51.046;7.010;2023-09-19T09:09:47;100562.34;;;20.90;nan
3082;BME280;1551;51.046;7.010;2023-09-19T09:12:37;100575.22;;;21.08;nan
3082;BME280;1551;51.046;7.010;2023-09-19T09:15:30;100574.38;;;21.39;nan
3082;BME280;1551;51.046;7.010;2023-09-19T09:18:21;100570.00;;;21.69;nan
3082;BME280;1551;51.046;7.010;2023-09-19T09:21:12;100567.81;;;22.07;nan
3082;BME280;1551;51.046;7.010;2023-09-19T09:24:28;100560.66;;;22.25;nan
3082;BME280;1551;51.046;7.010;2023-09-19T09:27:18;100565.22;;;22.49;nan
3082;BME280;1551;51.046;7.010;2023-09-19T09:30:07;100563.91;;;22.56;nan
3082;BME280;1551;51.046;7.010;2023-09-19T09:33:08;100551.06;;;22.25;nan
3082;BME280;1551;51.046;7.010;2023-09-19T09:35:59;100566.22;;;22.19;nan
3082;BME280;1551;51.046;7.010;2023-09-19T09:38:51;100557.66;;;22.17;nan
3082;BME280;1551;51.046;7.010;2023-09-19T09:41:43;100537.66;;;22.45;nan
3082;BME280;1551;51.046;7.010;2023-09-19T09:44:32;100555.75;;;23.44;nan
3082;BME280;1551;51.046;7.010;2023-09-19T09:47:41;100560.44;;;23.39;nan
3082;BME280;1551;51.046;7.010;2023-09-19T09:53:39;100553.41;;;23.79;nan
3082;BME280;1551;51.046;7.010;2023-09-19T09:56:31;100548.56;;;23.73;nan
3082;BME280;1551;51.046;7.010;2023-09-19T09:59:22;100549.06;;;22.99;nan
3082;BME280;1551;51.046;7.010;2023-09-19T10:02:18;100564.91;;;23.37;nan
3082;BME280;1551;51.046;7.010;2023-09-19T10:08:17;100560.78;;;23.33;nan
3082;BME280;1551;51.046;7.010;2023-09-19T10:11:17;100560.41;;;23.78;nan
3082;BME280;1551;51.046;7.010;2023-09-19T10:14:10;100550.09;;;24.40;nan
3082;BME280;1551;51.046;7.010;2023-09-19T10:17:02;100541.72;;;24.47;nan
3082;BME280;1551;51.046;7.010;2023-09-19T10:19:56;100558.03;;;25.00;nan
3082;BME280;1551;51.046;7.010;2023-09-19T10:22:54;100550.97;;;25.95;nan
3082;BME280;1551;51.046;7.010;2023-09-19T10:25:47;100547.19;;;25.64;nan
3082;BME280;1551;51.046;7.010;2023-09-19T10:28:37;100536.78;;;25.52;nan
3082;BME280;1551;51.046;7.010;2023-09-19T10:31:28;100440.97;;;24.66;nan
3082;BME280;1551;51.046;7.010;2023-09-19T10:34:17;100546.19;;;24.71;nan
3082;BME280;1551;51.046;7.010;2023-09-19T10:37:07;100529.69;;;24.94;nan
3082;BME280;1551;51.046;7.010;2023-09-19T10:39:58;100534.25;;;25.03;nan
3082;BME280;1551;51.046;7.010;2023-09-19T10:42:48;100537.44;;;24.95;nan
3082;BME280;1551;51.046;7.010;2023-09-19T10:45:39;100528.88;;;24.81;nan
3082;BME280;1551;51.046;7.010;2023-09-19T10:48:29;100528.72;;;25.42;nan
3082;BME280;1551;51.046;7.010;2023-09-19T10:51:22;100526.41;;;25.03;nan
3082;BME280;1551;51.046;7.010;2023-09-19T10:54:16;100533.69;;;24.74;nan
3082;BME280;1551;51.046;7.010;2023-09-19T10:57:08;100527.00;;;24.70;nan
3082;BME280;1551;51.046;7.010;2023-09-19T11:00:08;100527.28;;;25.73;nan
3082;BME280;1551;51.046;7.010;2023-09-19T11:06:10;100522.91;;;25.84;nan
3082;BME280;1551;51.046;7.010;2023-09-19T11:09:03;100525.00;;;26.14;nan
3082;BME280;1551;51.046;7.010;2023-09-19T11:16:04;100520.19;;;26.63;nan
3082;BME280;1551;51.046;7.010;2023-09-19T11:18:53;100524.47;;;27.61;nan
3082;BME280;1551;51.046;7.010;2023-09-19T11:21:52;100528.84;;;28.53;nan
3082;BME280;1551;51.046;7.010;2023-09-19T11:24:43;100524.97;;;27.55;nan
3082;BME280;1551;51.046;7.010;2023-09-19T11:30:26;100519.00;;;27.74;nan
3082;BME280;1551;51.046;7.010;2023-09-19T11:36:14;100539.59;;;28.71;nan
3082;BME280;1551;51.046;7.010;2023-09-19T11:39:04;100537.63;;;29.79;nan
3082;BME280;1551;51.046;7.010;2023-09-19T11:41:57;100519.16;;;29.41;nan
3082;BME280;1551;51.046;7.010;2023-09-19T11:44:46;100533.88;;;29.72;nan
3082;BME280;1551;51.046;7.010;2023-09-19T11:47:40;100544.97;;;29.57;nan
3082;BME280;1551;51.046;7.010;2023-09-19T11:50:32;100536.75;;;29.12;nan
3082;BME280;1551;51.046;7.010;2023-09-19T11:53:24;100536.47;;;28.96;nan
3082;BME280;1551;51.046;7.010;2023-09-19T11:56:24;100478.72;;;29.79;nan
3082;BME280;1551;51.046;7.010;2023-09-19T11:59:24;100540.50;;;30.32;nan
3082;BME280;1551;51.046;7.010;2023-09-19T12:05:29;100531.09;;;29.83;nan
3082;BME280;1551;51.046;7.010;2023-09-19T12:08:19;100529.00;;;30.88;nan
3082;BME280;1551;51.046;7.010;2023-09-19T12:11:14;100537.56;;;30.99;nan
3082;BME280;1551;51.046;7.010;2023-09-19T12:14:03;100535.75;;;30.73;nan
3082;BME280;1551;51.046;7.010;2023-09-19T12:19:52;100529.78;;;31.33;nan
3082;BME280;1551;51.046;7.010;2023-09-19T12:22:42;100539.03;;;30.20;nan
3082;BME280;1551;51.046;7.010;2023-09-19T12:25:49;100533.19;;;30.36;nan
3082;BME280;1551;51.046;7.010;2023-09-19T12:28:42;100518.44;;;30.88;nan
3082;BME280;1551;51.046;7.010;2023-09-19T12:31:32;100529.34;;;31.55;nan
3082;BME280;1551;51.046;7.010;2023-09-19T12:34:27;100506.09;;;29.78;nan
3082;BME280;1551;51.046;7.010;2023-09-19T12:37:17;100513.91;;;29.32;nan
3082;BME280;1551;51.046;7.010;2023-09-19T12:40:16;100508.03;;;29.76;nan
3082;BME280;1551;51.046;7.010;2023-09-19T12:43:10;100523.59;;;29.21;nan
3082;BME280;1551;51.046;7.010;2023-09-19T12:46:04;100516.34;;;29.71;nan
3082;BME280;1551;51.046;7.010;2023-09-19T12:49:17;100519.00;;;29.71;nan
3082;BME280;1551;51.046;7.010;2023-09-19T12:52:06;100523.59;;;29.41;nan
3082;BME280;1551;51.046;7.010;2023-09-19T12:54:54;100493.00;;;29.96;nan
3082;BME280;1551;51.046;7.010;2023-09-19T13:00:56;100496.81;;;29.16;nan
3082;BME280;1551;51.046;7.010;2023-09-19T13:03:45;100497.91;;;29.62;nan
3082;BME280;1551;51.046;7.010;2023-09-19T13:06:35;100487.91;;;28.70;nan
3082;BME280;1551;51.046;7.010;2023-09-19T13:09:27;100510.63;;;28.31;nan
3082;BME280;1551;51.046;7.010;2023-09-19T13:12:37;100467.69;;;27.79;nan
3082;BME280;1551;51.046;7.010;2023-09-19T13:15:27;100469.78;;;27.85;nan
3082;BME280;1551;51.046;7.010;2023-09-19T13:18:18;100482.66;;;28.49;nan
3082;BME280;1551;51.046;7.010;2023-09-19T13:21:10;100480.19;;;28.47;nan
3082;BME280;1551;51.046;7.010;2023-09-19T13:24:33;100465.47;;;28.45;nan
3082;BME280;1551;51.046;7.010;2023-09-19T13:27:24;100464.72;;;29.50;nan
3082;BME280;1551;51.046;7.010;2023-09-19T13:30:13;100471.59;;;28.45;nan
3082;BME280;1551;51.046;7.010;2023-09-19T13:33:07;100477.34;;;28.70;nan
3082;BME280;1551;51.046;7.010;2023-09-19T13:35:58;100471.66;;;27.94;nan
3082;BME280;1551;51.046;7.010;2023-09-19T13:38:47;100473.13;;;26.29;nan
3082;BME280;1551;51.046;7.010;2023-09-19T13:41:38;100479.44;;;26.37;nan
3082;BME280;1551;51.046;7.010;2023-09-19T13:44:27;100453.56;;;27.18;nan
3082;BME280;1551;51.046;7.010;2023-09-19T13:47:18;100470.13;;;27.51;nan
3082;BME280;1551;51.046;7.010;2023-09-19T13:50:13;100477.75;;;27.33;nan
3082;BME280;1551;51.046;7.010;2023-09-19T13:53:03;100473.56;;;26.56;nan
3082;BME280;1551;51.046;7.010;2023-09-19T13:55:52;100477.31;;;25.17;nan
3082;BME280;1551;51.046;7.010;2023-09-19T13:58:41;100439.56;;;25.20;nan
3082;BME280;1551;51.046;7.010;2023-09-19T14:01:31;100466.19;;;26.39;nan
3082;BME280;1551;51.046;7.010;2023-09-19T14:04:20;100459.25;;;25.93;nan
3082;BME280;1551;51.046;7.010;2023-09-19T14:07:11;100454.09;;;25.24;nan
3082;BME280;1551;51.046;7.010;2023-09-19T14:10:00;100462.69;;;25.02;nan
3082;BME280;1551;51.046;7.010;2023-09-19T14:12:49;100470.31;;;24.45;nan
3082;BME280;1551;51.046;7.010;2023-09-19T14:15:38;100453.31;;;24.02;nan
3082;BME280;1551;51.046;7.010;2023-09-19T14:18:27;100461.50;;;23.98;nan
3082;BME280;1551;51.046;7.010;2023-09-19T14:21:16;100463.50;;;23.81;nan
3082;BME280;1551;51.046;7.010;2023-09-19T14:24:05;100462.66;;;23.56;nan
3082;BME280;1551;51.046;7.010;2023-09-19T14:26:58;100473.72;;;23.47;nan
3082;BME280;1551;51.046;7.010;2023-09-19T14:29:48;100462.00;;;23.40;nan
3082;BME280;1551;51.046;7.010;2023-09-19T14:32:37;100468.25;;;23.37;nan
3082;BME280;1551;51.046;7.010;2023-09-19T14:35:26;100476.50;;;23.04;nan
3082;BME280;1551;51.046;7.010;2023-09-19T14:38:15;100477.47;;;22.89;nan
3082;BME280;1551;51.046;7.010;2023-09-19T14:41:05;100472.13;;;22.78;nan
3082;BME280;1551;51.046;7.010;2023-09-19T14:43:55;100472.69;;;22.96;nan
3082;BME280;1551;51.046;7.010;2023-09-19T14:46:44;100475.69;;;23.16;nan
3082;BME280;1551;51.046;7.010;2023-09-19T14:49:34;100457.56;;;23.01;nan
3082;BME280;1551;51.046;7.010;2023-09-19T14:52:23;100474.03;;;22.89;nan
3082;BME280;1551;51.046;7.010;2023-09-19T14:55:15;100465.06;;;22.66;nan
3082;BME280;1551;51.046;7.010;2023-09-19T14:58:05;100472.94;;;23.05;nan
3082;BME280;1551;51.046;7.010;2023-09-19T15:00:54;100470.38;;;23.18;nan
3082;BME280;1551;51.046;7.010;2023-09-19T15:08:02;100472.41;;;23.00;nan
3082;BME280;1551;51.046;7.010;2023-09-19T15:10:51;100467.44;;;22.83;nan
3082;BME280;1551;51.046;7.010;2023-09-19T15:13:41;100455.81;;;22.75;nan
3082;BME280;1551;51.046;7.010;2023-09-19T15:16:31;100457.88;;;22.55;nan
3082;BME280;1551;51.046;7.010;2023-09-19T15:19:21;100462.31;;;22.41;nan
3082;BME280;1551;51.046;7.010;2023-09-19T15:22:11;100470.31;;;22.24;nan
3082;BME280;1551;51.046;7.010;2023-09-19T15:25:02;100472.19;;;22.08;nan
3082;BME280;1551;51.046;7.010;2023-09-19T15:27:52;100468.19;;;22.16;nan
3082;BME280;1551;51.046;7.010;2023-09-19T15:30:41;100460.19;;;22.19;nan
3082;BME280;1551;51.046;7.010;2023-09-19T15:33:30;100457.94;;;21.99;nan
3082;BME280;1551;51.046;7.010;2023-09-19T15:36:19;100468.56;;;21.96;nan
3082;BME280;1551;51.046;7.010;2023-09-19T15:39:08;100457.47;;;22.07;nan
3082;BME280;1551;51.046;7.010;2023-09-19T15:42:00;100447.31;;;22.16;nan
3082;BME280;1551;51.046;7.010;2023-09-19T15:44:49;100461.84;;;22.06;nan
3082;BME280;1551;51.046;7.010;2023-09-19T15:47:39;100466.25;;;22.20;nan
3082;BME280;1551;51.046;7.010;2023-09-19T15:50:28;100461.03;;;22.20;nan
3082;BME280;1551;51.046;7.010;2023-09-19T15:53:18;100457.47;;;22.07;nan
3082;BME280;1551;51.046;7.010;2023-09-19T15:56:07;100454.84;;;22.21;nan
3082;BME280;1551;51.046;7.010;2023-09-19T15:58:56;100451.81;;;22.00;nan
3082;BME280;1551;51.046;7.010;2023-09-19T16:01:45;100461.19;;;21.88;nan
3082;BME280;1551;51.046;7.010;2023-09-19T16:04:34;100453.94;;;21.94;nan
3082;BME280;1551;51.046;7.010;2023-09-19T16:07:23;100461.31;;;22.01;nan
3082;BME280;1551;51.046;7.010;2023-09-19T16:10:12;100462.22;;;22.00;nan
3082;BME280;1551;51.046;7.010;2023-09-19T16:13:02;100461.19;;;21.88;nan
3082;BME280;1551;51.046;7.010;2023-09-19T16:15:52;100445.66;;;21.87;nan
3082;BME280;1551;51.046;7.010;2023-09-19T16:18:45;100458.88;;;21.98;nan
3082;BME280;1551;51.046;7.010;2023-09-19T16:21:36;100446.03;;;21.95;nan
3082;BME280;1551;51.046;7.010;2023-09-19T16:24:26;100444.44;;;21.92;nan
3082;BME280;1551;51.046;7.010;2023-09-19T16:27:15;100448.34;;;21.85;nan
3082;BME280;1551;51.046;7.010;2023-09-19T16:30:05;100451.94;;;21.83;nan
3082;BME280;1551;51.046;7.010;2023-09-19T16:32:54;100450.28;;;21.82;nan
3082;BME280;1551;51.046;7.010;2023-09-19T16:35:43;100458.88;;;21.84;nan
3082;BME280;1551;51.046;7.010;2023-09-19T16:38:32;100449.75;;;21.91;nan
3082;BME280;1551;51.046;7.010;2023-09-19T16:41:21;100460.53;;;21.99;nan
3082;BME280;1551;51.046;7.010;2023-09-19T16:44:10;100452.38;;;22.05;nan
3082;BME280;1551;51.046;7.010;2023-09-19T16:46:59;100457.84;;;22.01;nan
3082;BME280;1551;51.046;7.010;2023-09-19T16:49:51;100457.47;;;21.92;nan